Kezdőlap
METAR-TAF:

METAR-TAF

Repülőterek :

Viktória-vízesés, Zimbabwe

földrajzi szélesség: 18-06S, földrajzi hosszúság: 025-51E, magasság: 1061 m

Jelenlegi meteorológiai megfigyelések

A jelentés 3 órával és 3 perccel ezelõtt készült, 09:00 UTC
Keleti szél 8 kt
Hőmérséklet 30°C
Páratartalom 27%
Légköri nyomás 1021 hPa
Látótávolság 10 km, vagy több
felhőtlen 1500 m magasságban, és nincs gomolyfelhõ

METAR: FVFA 230900Z 09008KT CAVOK 30/09 Q1021 NOSIG

Idő: 14:03 (12:03 UTC)


TAF: hiányzik

Meteorológiai megfigyelések és előrejelzések több, mint 4000 repülőtéren (METAR és TAF jelentéseket).

A térképen piros és sárga pontok jelzik az elérhető meteorológiai állomásokat.

Mozgassa az egeret a pont fölött, hogy megjelenjen az állomás neve.

Azután kattintson az időjárási megfigyelések és előrejelzések megtekintéséhez.

A térkép megváltoztatása: kattintson a fekete keresztel jelölt zöld gombra ráközelítéshez, a vonallal jelölt zöld gombra távolításhoz, vagy a zöld nyilakra a szomszédos térképek eléréséhez.


METAR-TAF: